createdAt,value
2022-11-05T11:42:27.935Z,36.92
2022-11-05T11:44:59.258Z,42.83
2022-11-05T11:47:29.051Z,38.03
2022-11-05T11:49:59.213Z,41.72
2022-11-05T11:52:33.236Z,43.25
2022-11-05T11:55:22.324Z,40.25
2022-11-05T11:57:52.526Z,42.75
2022-11-05T12:00:23.615Z,41.17
2022-11-05T12:03:02.535Z,41.45
2022-11-05T12:05:46.284Z,41.67
2022-11-05T12:08:30.481Z,41.60
2022-11-05T12:11:12.832Z,39.28
2022-11-05T12:14:02.250Z,41.10
2022-11-05T12:16:42.520Z,40.63
2022-11-05T12:19:32.463Z,42.58
2022-11-05T12:22:17.744Z,40.80
2022-11-05T12:24:55.276Z,39.67
2022-11-05T12:27:26.577Z,41.95
2022-11-05T12:30:03.068Z,43.13
2022-11-05T12:32:36.398Z,39.95
2022-11-05T12:35:23.015Z,41.03
2022-11-05T12:38:27.539Z,41.13
2022-11-05T12:41:31.570Z,42.15
2022-11-05T12:44:12.023Z,41.35
2022-11-05T12:47:09.581Z,41.30
2022-11-05T12:50:01.353Z,40.53
2022-11-05T12:52:47.058Z,43.50
2022-11-05T12:55:18.919Z,44.15
2022-11-05T13:00:24.865Z,41.08
2022-11-05T13:03:14.664Z,43.92
2022-11-05T13:06:04.642Z,47.00
2022-11-05T13:09:12.681Z,44.93
2022-11-05T13:11:51.065Z,47.13
2022-11-05T13:14:44.575Z,44.55
2022-11-05T13:17:24.410Z,49.03
2022-11-05T13:20:06.326Z,48.08
2022-11-05T13:22:45.955Z,49.35
2022-11-05T13:25:23.314Z,45.72
2022-11-05T13:28:15.233Z,46.00
2022-11-05T13:30:52.403Z,49.13
2022-11-05T13:33:33.063Z,48.13
2022-11-05T13:36:26.651Z,48.80
2022-11-05T13:39:09.371Z,44.92
2022-11-05T13:42:00.313Z,47.55
2022-11-05T13:44:51.885Z,47.35
2022-11-05T13:47:50.295Z,48.15
2022-11-05T13:51:00.080Z,47.30
2022-11-05T13:53:52.572Z,46.78
2022-11-05T13:56:30.816Z,48.63
2022-11-05T13:59:40.296Z,49.92
2022-11-05T14:02:26.719Z,43.92
2022-11-05T14:05:01.424Z,48.03
2022-11-05T14:07:33.385Z,50.25
2022-11-05T14:10:38.456Z,53.25
2022-11-05T14:13:34.149Z,53.25
2022-11-05T14:16:21.019Z,53.78
2022-11-05T14:18:49.395Z,52.70
2022-11-05T14:21:26.623Z,55.78
2022-11-05T14:23:59.397Z,56.75
2022-11-05T14:26:31.649Z,57.40
2022-11-05T14:29:02.987Z,55.65
2022-11-05T14:32:07.343Z,57.47
2022-11-05T14:35:01.221Z,59.55
2022-11-05T14:37:53.453Z,56.88
2022-11-05T14:40:42.495Z,62.42
2022-11-05T14:43:22.552Z,58.90
2022-11-05T14:46:02.378Z,64.10
2022-11-05T14:48:42.517Z,58.72
2022-11-05T14:51:31.371Z,58.47
2022-11-05T14:54:25.892Z,57.97
2022-11-05T14:56:59.609Z,53.60
2022-11-05T14:59:33.191Z,53.10
2022-11-05T15:02:06.044Z,50.75
2022-11-05T15:04:36.314Z,54.03
2022-11-05T15:07:04.785Z,52.45
2022-11-05T15:09:49.677Z,51.70
2022-11-05T15:12:35.237Z,51.40
2022-11-05T15:15:23.292Z,50.08
2022-11-05T15:18:06.696Z,49.70
2022-11-05T15:20:45.689Z,50.90
2022-11-05T15:23:17.400Z,52.10
2022-11-05T15:26:23.241Z,53.42
2022-11-05T15:28:55.712Z,49.15
2022-11-05T15:31:37.033Z,46.88
2022-11-05T15:37:02.038Z,45.38
2022-11-05T15:39:40.951Z,48.45
2022-11-05T15:42:17.572Z,47.08
2022-11-05T15:44:48.156Z,47.92
2022-11-05T15:47:23.496Z,48.28
2022-11-05T15:50:01.412Z,48.30
2022-11-05T15:52:36.626Z,48.25
2022-11-05T15:55:20.288Z,47.20
2022-11-05T15:57:50.956Z,44.58
2022-11-05T16:03:26.434Z,45.25
2022-11-05T16:05:55.480Z,46.30
2022-11-05T16:08:29.063Z,47.25
2022-11-05T16:10:59.804Z,44.78
2022-11-05T16:13:42.096Z,43.95
2022-11-05T16:16:16.260Z,45.35
2022-11-05T16:18:45.453Z,44.92
2022-11-05T16:21:19.324Z,47.88
2022-11-05T16:23:50.193Z,48.42
2022-11-05T16:27:00.765Z,53.33
2022-11-05T16:29:30.013Z,49.63
2022-11-05T16:32:00.400Z,50.03
2022-11-05T16:34:38.020Z,53.40
2022-11-05T16:37:08.223Z,49.63
2022-11-05T16:39:36.452Z,47.67
2022-11-05T16:42:24.922Z,51.53
2022-11-05T16:44:55.220Z,48.03
2022-11-05T16:47:26.163Z,49.67
2022-11-05T16:50:26.700Z,36.90
2022-11-05T16:52:55.212Z,47.70
2022-11-05T16:55:23.324Z,50.40
2022-11-05T16:58:07.776Z,48.67
2022-11-05T17:00:55.186Z,47.83
2022-11-05T17:03:23.735Z,48.35
2022-11-05T17:05:51.832Z,47.90
2022-11-05T17:08:20.311Z,47.78
2022-11-05T17:10:48.467Z,47.58
2022-11-05T17:13:18.625Z,43.55
2022-11-05T17:15:48.499Z,49.10
2022-11-05T17:18:18.960Z,45.70
2022-11-05T17:20:52.601Z,45.73
2022-11-05T17:23:34.354Z,46.10
2022-11-05T17:26:20.392Z,47.47
2022-11-05T17:28:48.978Z,47.65
2022-11-05T17:31:47.009Z,51.40
2022-11-05T17:34:15.448Z,47.15
2022-11-05T17:36:43.584Z,48.75
2022-11-05T17:39:12.898Z,47.80
2022-11-05T17:41:40.978Z,47.83
2022-11-05T17:44:12.166Z,52.83
2022-11-05T17:46:40.245Z,51.63
2022-11-05T17:49:08.632Z,48.72
2022-11-05T17:51:36.748Z,50.70
2022-11-05T17:54:05.258Z,50.78
2022-11-05T17:56:35.590Z,48.17
2022-11-05T18:01:35.786Z,47.67
2022-11-05T18:04:08.865Z,46.80
2022-11-05T18:06:38.836Z,48.67
2022-11-05T18:09:08.625Z,47.00
2022-11-05T18:11:37.936Z,48.05
2022-11-05T18:14:06.438Z,46.20
2022-11-05T18:16:34.751Z,46.50
2022-11-05T18:19:03.708Z,44.55
2022-11-05T18:21:31.901Z,43.08
2022-11-05T18:24:05.332Z,43.38
2022-11-05T18:26:33.755Z,41.78
2022-11-05T18:29:03.519Z,42.08
2022-11-05T18:31:31.692Z,40.63
2022-11-05T18:34:00.828Z,38.55
2022-11-05T18:36:30.635Z,35.20
2022-11-05T18:39:01.457Z,33.38
2022-11-05T18:41:30.052Z,29.47
2022-11-05T18:44:02.408Z,29.38
2022-11-05T18:49:20.626Z,25.55
2022-11-05T18:51:48.752Z,24.25
2022-11-05T18:54:17.264Z,24.88
2022-11-05T18:56:45.805Z,24.70
2022-11-05T18:59:35.935Z,24.20
2022-11-05T19:02:04.975Z,23.20
2022-11-05T19:04:35.096Z,22.48
2022-11-05T19:07:05.559Z,22.48
2022-11-05T19:09:38.626Z,19.80
2022-11-05T19:12:08.214Z,19.15
2022-11-05T19:14:36.754Z,20.73
2022-11-05T19:17:05.402Z,18.58
2022-11-05T19:19:33.865Z,20.58
2022-11-05T19:22:02.024Z,18.17
2022-11-05T19:24:30.497Z,17.30
2022-11-05T19:26:58.601Z,16.83
2022-11-05T19:29:27.471Z,16.42
2022-11-05T19:31:55.736Z,16.38
2022-11-05T19:34:24.222Z,15.38
2022-11-05T19:36:52.325Z,14.85
2022-11-05T19:39:20.867Z,14.98
2022-11-05T19:41:50.032Z,14.18
2022-11-05T19:44:18.517Z,13.43
2022-11-05T19:46:46.667Z,16.33
2022-11-05T19:49:15.140Z,15.63
2022-11-05T19:51:43.261Z,15.65
2022-11-05T19:54:11.889Z,17.02
2022-11-05T19:56:39.994Z,17.17
2022-11-05T19:59:08.492Z,18.88
2022-11-05T20:01:38.281Z,17.98
2022-11-05T20:04:07.008Z,19.45
2022-11-05T20:06:38.862Z,20.35
2022-11-05T20:09:25.786Z,21.83
2022-11-05T20:11:56.473Z,23.33
2022-11-05T20:14:26.208Z,21.20
2022-11-05T20:16:54.499Z,19.77
2022-11-05T20:19:23.704Z,24.13
2022-11-05T20:21:52.061Z,22.05
2022-11-05T20:24:24.683Z,21.75
2022-11-05T20:26:54.979Z,20.90
2022-11-05T20:29:27.848Z,22.83
2022-11-05T20:31:58.906Z,21.95
2022-11-05T20:34:29.690Z,21.92
2022-11-05T20:36:57.839Z,21.00
2022-11-05T20:39:26.450Z,21.40
2022-11-05T20:41:56.496Z,21.92
2022-11-05T20:44:25.031Z,22.10
2022-11-05T20:46:53.280Z,21.02
2022-11-05T20:49:25.401Z,20.80
2022-11-05T20:51:55.060Z,21.20
2022-11-05T20:54:23.942Z,21.08
2022-11-05T20:56:52.054Z,19.10
2022-11-05T20:59:20.529Z,21.35
2022-11-05T21:01:50.085Z,20.25
2022-11-05T21:04:18.889Z,20.02
2022-11-05T21:06:46.995Z,20.27
2022-11-05T21:09:15.413Z,20.27
2022-11-05T21:12:02.111Z,20.67
2022-11-05T21:14:30.590Z,21.70
2022-11-05T21:16:58.713Z,21.27
2022-11-05T21:19:27.204Z,20.85
2022-11-05T21:21:55.455Z,19.88
2022-11-05T21:24:23.930Z,20.30
2022-11-05T21:26:52.196Z,20.83
2022-11-05T21:29:20.858Z,20.60
2022-11-05T21:31:49.274Z,20.27
2022-11-05T21:34:19.111Z,21.02
2022-11-05T21:36:47.408Z,19.85
2022-11-05T21:39:15.894Z,20.30
2022-11-05T21:41:43.993Z,20.25
2022-11-05T21:44:12.473Z,19.02
2022-11-05T21:46:40.673Z,18.67
2022-11-05T21:49:09.524Z,19.63
2022-11-05T21:51:56.058Z,19.45
2022-11-05T21:54:42.881Z,20.98
2022-11-05T21:57:33.488Z,20.17
2022-11-05T22:00:05.898Z,21.48
2022-11-05T22:02:34.236Z,18.30
2022-11-05T22:05:03.770Z,20.83
2022-11-05T22:07:35.399Z,19.38
2022-11-05T22:10:06.190Z,20.10
2022-11-05T22:12:34.340Z,19.92
2022-11-05T22:15:02.935Z,18.98
2022-11-05T22:17:31.084Z,21.60
2022-11-05T22:19:59.553Z,20.13
2022-11-05T22:22:27.629Z,19.80
2022-11-05T22:24:56.220Z,21.33
2022-11-05T22:27:24.336Z,20.13
2022-11-05T22:29:52.935Z,20.40
2022-11-05T22:32:21.051Z,18.20
2022-11-05T22:34:49.775Z,16.83
2022-11-05T22:37:17.928Z,17.83
2022-11-05T22:39:46.381Z,18.83
2022-11-05T22:42:14.839Z,19.02
2022-11-05T22:44:43.336Z,18.88
2022-11-05T22:47:11.481Z,18.20
2022-11-05T22:49:40.031Z,18.40
2022-11-05T22:52:08.217Z,17.98
2022-11-05T22:54:39.383Z,17.48
2022-11-05T22:57:08.720Z,18.50
2022-11-05T22:59:37.201Z,17.98
2022-11-05T23:02:09.803Z,19.02
2022-11-05T23:04:39.053Z,19.23
2022-11-05T23:07:27.869Z,19.58
2022-11-05T23:10:15.150Z,17.48
2022-11-05T23:12:44.718Z,17.98
2022-11-05T23:15:33.357Z,18.02
2022-11-05T23:18:19.789Z,17.98
2022-11-05T23:21:07.084Z,16.63
